KQSI

2018-10-18 01:45:08Z

Plaintext report →

Current Status: Clear

Temperature
High30.7 °C87.3 °F
Current28.4 °C83.1 °F
Low29.6 °C85.3 °F
Feels Like31.2 °C88.1 °F
Dewpoint22.0 °C71.6 °F
Winds
Speed and Direction1.0 m/s2.2 mi/h 1 kn164 °
Gust0.0 m/s0.00 mi/h 0 kn
SquallUnavailable
Pressure and Humidity
Pressure At Field Level1007.8 mb29.8 in
Pressure At Sea Level1012.8 mb29.9 in
Pressure Trend-0.1 mb-0.0 in
Pressure Tendency 4
Humidity68 %

Station Alarms & Warnings:

Ceilometer Alarms / Warnings:

Ceilometer Data Missing!
Historical Weather Phenomenon Graphs

Additional Information:

  METAR KQSI 180145Z AUTO 16001KT NCD 28/22 A2976 RMK AO2 SLP128 10307
  20296 54000 $=    
Cloud Cover
Layer 1 Undetected
Layer 2 Undetected
Layer 3 Undetected
Winds
2-minute Winds
Minimum0.4 m/s0.89 mi/h 0 kn129 °
Average0.9 m/s2.01 mi/h 1 kn153 °
Maximum1.3 m/s2.91 mi/h 2 kn175 °
10-minute Winds
Minimum0.4 m/s0.89 mi/h 0 kn127 °
Average0.8 m/s1.79 mi/h 1 kn158 °
Maximum1.4 m/s3.13 mi/h 2 kn216 °
Precipitation
Intensity0.00 mm/h0.00 in/h
Rainfall
1-hour Total0.00 mm0.00 in
3-hour Total0.00 mm0.00 in
6-hour Total0.00 mm0.00 in
24-hour Total0.00 mm0.00 in
Precipitation
1-hour Total0.00 mm0.00 in
3-hour Total0.00 mm0.00 in
6-hour Total0.00 mm0.00 in
24-hour Total0.00 mm0.00 in